Portada
METAR-TAF:

METAR-TAF

Aeroports :

Bhavnagar, Índia

latitud: 21-45-08N, longitud: 72-11-07E, altitud: 6 m

Observació

L'informe es va fer fa 6 hores i 48 minuts, a les 12:00 UTC
Vent 21 kt del Sud
Temperatura 37°C
Humitat 50%
Pressió 997 hPa
Visibilitat: 6000 m
Escasses núvols a una alçada de 2500 ft

METAR: VABV 231200Z 18021KT 6000 FEW025 37/25 Q0997

Hora: 00:18 (18:48 UTC)

Pronòstic

L'informe es va fer fa 1 hora i 48 minuts, a les 17:00 UTC
Pronòstic vàlid del 23 a les 18 UTC al 24 a les 03 UTC
Vent 12 kt del Sud-Oest
Visibilitat: 4000 m
Núvols disperses a una alçada de 2000 ft
torb baixa de pols

TAF: VABV 231700Z 2318/2403 23012KT 4000 DRDU SCT020

Observacions i pronòstics meteorològics de més de 4000 aeroports (METAR i TAF).

Les estacions disponibles són els punts grocs i vermells al mapa.

Posi el ratolí al punt desitjat per veure el nom de l'estació.

Feu clic per veure les observacions i els pronòstics meteorològics.

Per canviar el mapa: feu clic els botons verds amb una creu de color negre per apropar; al botó verd amb un guió per allunyar la imatge; o en les fletxes verdes per a mapes adjacents.


METAR-TAF: